»·PEaware :: N130F KRNO-KSMO

N130F :: KRNO-KSMO

FLIGHT INFORMATION

Flight Status: Arrived
Operator: Privately registered:
United States
More flights under this callsign
Pilot: David J. (24489)
Aircraft: CESSNA 525A CITATION CJ2
(C25A)
More flights by this aircraft type
Origin: KRNO Reno/Tahoe Intl
United States
Destination: KSMO Santa Monica Mun
United States
More flights between these airports :: More routes between these airports
Route: +RENO9 FMG J5 EHF FIM FERN7
File this flight plan on PilotEdge
Remarks: RMK / SIMBRIEF
Altitude:
(Current/Filed)
41,000ft
Speed:
(Current/Filed)
394kts
Departed: 16-Nov-20 07:18 PM
Arrived: 16-Nov-20 08:27 PM
Distance/Time
Traveled:
335nm/1:09
Distance/Time
To Go:
Arrived

Flight Plot

Page will automatically refresh every two minutes.

Flight plan parsing failed; only flown route is shown


Map Options




Map Legend


Flown Route
Filed Route
Departure Airport
Arrival Airport
Navaid (VOR, NDB)
Fix

Horizontal Profiles

Position Reports

Time Latitude Longitude Heading Altitude Ground
Speed
16-Nov-20 18:57 39.500335 -119.764018 90 4419ft 0kts
16-Nov-20 18:58 39.500335 -119.764018 90 4419ft 0kts
16-Nov-20 18:59 39.500335 -119.764018 90 4419ft 0kts
16-Nov-20 19:00 39.500335 -119.764018 90 4419ft 0kts
16-Nov-20 19:01 39.500335 -119.764018 90 4419ft 0kts
16-Nov-20 19:02 39.500335 -119.764018 90 4419ft 0kts
16-Nov-20 19:03 39.500335 -119.764018 90 4419ft 0kts
16-Nov-20 19:04 39.500335 -119.764018 90 4419ft 0kts
16-Nov-20 19:05 39.500335 -119.764018 90 4419ft 0kts
16-Nov-20 19:06 39.500335 -119.764018 90 4419ft 0kts
16-Nov-20 19:07 39.500335 -119.764018 90 4419ft 0kts
16-Nov-20 19:08 39.500335 -119.764018 90 4419ft 0kts
16-Nov-20 19:09 39.500335 -119.764017 90 4419ft 0kts
16-Nov-20 19:10 39.500870 -119.764690 292 4419ft 4kts
16-Nov-20 19:11 39.501866 -119.765609 355 4419ft 5kts
16-Nov-20 19:12 39.504084 -119.765701 1 4419ft 14kts
16-Nov-20 19:13 39.507497 -119.765697 0 4419ft 15kts
16-Nov-20 19:14 39.511221 -119.765267 4 4419ft 3kts
16-Nov-20 19:15 39.513437 -119.765976 275 4419ft 0kts
16-Nov-20 19:16 39.513437 -119.765979 275 4419ft 0kts
16-Nov-20 19:17 39.503335 -119.766826 181 4419ft 121kts
16-Nov-20 19:18 39.457475 -119.766256 177 6128ft 186kts
16-Nov-20 19:19 39.402013 -119.764566 177 8180ft 210kts
16-Nov-20 19:20 39.337702 -119.762958 177 10217ft 264kts
16-Nov-20 19:21 39.265831 -119.757757 177 14222ft 285kts
16-Nov-20 19:22 39.185528 -119.743280 165 18452ft 301kts
16-Nov-20 19:23 39.104274 -119.709079 166 21803ft 310kts
16-Nov-20 19:24 39.017737 -119.675073 166 23126ft 345kts
16-Nov-20 19:25 38.926919 -119.639693 166 24585ft 336kts
16-Nov-20 19:26 38.835401 -119.604249 166 26362ft 349kts
16-Nov-20 19:27 38.740912 -119.567739 166 27834ft 361kts
16-Nov-20 19:28 38.642922 -119.531039 169 29048ft 371kts
16-Nov-20 19:29 38.539838 -119.513391 175 30100ft 378kts
16-Nov-20 19:30 38.433832 -119.498366 175 31001ft 386kts
16-Nov-20 19:31 38.326056 -119.483142 175 31760ft 393kts
16-Nov-20 19:32 38.216350 -119.467690 175 32436ft 399kts
16-Nov-20 19:33 38.105238 -119.452090 175 33005ft 404kts
16-Nov-20 19:34 37.997369 -119.436933 176 34917ft 372kts
16-Nov-20 19:35 37.894612 -119.422593 177 36359ft 356kts
16-Nov-20 19:36 37.798573 -119.409210 178 37836ft 337kts
16-Nov-20 19:37 37.713967 -119.397408 180 40033ft 290kts
16-Nov-20 19:38 37.633179 -119.386360 180 40685ft 293kts
16-Nov-20 19:39 37.551603 -119.375116 180 41290ft 296kts
16-Nov-20 19:40 37.468949 -119.363700 180 41781ft 301kts
16-Nov-20 19:41 37.382273 -119.351798 180 41678ft 325kts
16-Nov-20 19:42 37.289359 -119.339035 179 41498ft 347kts
16-Nov-20 19:43 37.190530 -119.325484 179 41312ft 365kts
16-Nov-20 19:44 37.087248 -119.311363 179 41130ft 381kts
16-Nov-20 19:45 36.980705 -119.296831 179 41090ft 389kts
16-Nov-20 19:46 36.871976 -119.282052 179 41064ft 395kts
16-Nov-20 19:47 36.762095 -119.267164 178 41050ft 399kts
16-Nov-20 19:48 36.651059 -119.252170 178 41046ft 402kts
16-Nov-20 19:49 36.539517 -119.237152 178 41046ft 404kts
16-Nov-20 19:50 36.427346 -119.222094 179 41045ft 405kts
16-Nov-20 19:51 36.315066 -119.207066 179 41043ft 407kts
16-Nov-20 19:52 36.202190 -119.192003 179 41043ft 407kts
16-Nov-20 19:53 36.089439 -119.177000 179 41026ft 409kts
16-Nov-20 19:54 35.984120 -119.162930 179 39236ft 361kts
16-Nov-20 19:55 35.886160 -119.150039 179 37210ft 358kts
16-Nov-20 19:56 35.792172 -119.137701 177 35321ft 381kts
16-Nov-20 19:57 35.725029 -119.128830 177 33992ft 383kts
16-Nov-20 19:58 35.618840 -119.114858 176 31895ft 383kts
16-Nov-20 19:59 35.512556 -119.100931 176 29367ft 389kts
16-Nov-20 20:00 35.405115 -119.082768 172 26271ft 375kts
16-Nov-20 20:01 35.306172 -119.062838 172 23768ft 343kts
16-Nov-20 20:02 35.215004 -119.045093 172 22383ft 322kts
16-Nov-20 20:03 35.125564 -119.027842 171 19935ft 320kts
16-Nov-20 20:04 35.049184 -119.013146 171 18360ft 297kts
16-Nov-20 20:05 34.965887 -118.997172 171 16412ft 308kts
16-Nov-20 20:06 34.884305 -118.981550 171 14532ft 300kts
16-Nov-20 20:08 34.801570 -118.965739 171 12634ft 298kts
16-Nov-20 20:09 34.725981 -118.951296 170 10897ft 296kts
16-Nov-20 20:10 34.648671 -118.936604 170 10146ft 261kts
16-Nov-20 20:11 34.583548 -118.924226 170 10109ft 267kts
16-Nov-20 20:12 34.509495 -118.910173 170 10077ft 270kts
16-Nov-20 20:13 34.471799 -118.903027 170 10058ft 270kts
16-Nov-20 20:14 34.397786 -118.889025 170 10027ft 269kts
16-Nov-20 20:15 34.341417 -118.837021 115 9835ft 267kts
16-Nov-20 20:16 34.316165 -118.762328 113 7980ft 255kts
16-Nov-20 20:17 34.289795 -118.684937 113 6258ft 253kts
16-Nov-20 20:18 34.263462 -118.607888 112 5586ft 243kts
16-Nov-20 20:19 34.238513 -118.534511 112 4163ft 238kts
16-Nov-20 20:20 34.212852 -118.458985 112 4004ft 242kts
16-Nov-20 20:21 34.191952 -118.397456 112 4022ft 241kts
16-Nov-20 20:22 34.166305 -118.321867 113 3289ft 238kts
16-Nov-20 20:23 34.126188 -118.305664 225 3033ft 211kts
16-Nov-20 20:24 34.091986 -118.365495 229 2882ft 212kts
16-Nov-20 20:25 34.057375 -118.403272 222 1429ft 160kts
16-Nov-20 20:26 34.027783 -118.437297 224 463ft 137kts
16-Nov-20 20:26 34.013653 -118.453961 243 179ft 16kts
16-Nov-20 20:27 34.013672 -118.454912 327 179ft 0kts
16-Nov-20 20:28 34.015392 -118.452922 43 179ft 9kts
16-Nov-20 20:29 34.016122 -118.452967 313 179ft 0kts
16-Nov-20 20:31 34.016122 -118.452968 313 179ft 0kts
16-Nov-20 20:31 34.016122 -118.452968 313 179ft 0kts
16-Nov-20 20:32 34.016122 -118.452968 313 179ft 0kts
16-Nov-20 20:33 34.016122 -118.452968 313 179ft 0kts
16-Nov-20 20:34 34.016122 -118.452968 313 179ft 0kts
16-Nov-20 20:35 34.016122 -118.452968 313 179ft 0kts

Navigation Log

Ident Type
Flight plan parsing failed, navigation log unavailable